Time;durP1;ratioP1;P1;durP2;ratioP2;P2;SDS_P1;SDS_P2;PMS_P1;PMS_P2;Temp;Humidity;BMP_temperature;BMP_pressure;BME280_temperature;BME280_humidity;BME280_pressure;Samples;Min_cycle;Max_cycle;Signal;HPM_P1;HPM_P2
2022/09/08 06:26:26;;;;;;;22.73;20.05;;;21.10;75.70;;;;;;6175534;23;20059;-78
2022/09/08 06:29:01;;;;;;;25.23;19.70;;;21.10;75.60;;;;;;6185457;23;20021;-77
2022/09/08 06:31:32;;;;;;;22.20;19.55;;;21.10;75.70;;;;;;6187517;23;20020;-77
2022/09/08 06:34:02;;;;;;;26.45;19.85;;;21.10;75.80;;;;;;6187311;23;20023;-77
2022/09/08 06:36:49;;;;;;;24.15;19.83;;;21.10;75.80;;;;;;6187048;23;20417;-76
2022/09/08 06:39:25;;;;;;;26.90;20.08;;;21.10;75.90;;;;;;6187706;23;20017;-76
2022/09/08 06:42:16;;;;;;;22.92;19.85;;;21.10;75.90;;;;;;6187578;23;20025;-76
2022/09/08 06:44:45;;;;;;;30.30;21.08;;;21.10;75.90;;;;;;6186352;23;20021;-76
2022/09/08 06:47:19;;;;;;;23.45;20.70;;;21.10;76.10;;;;;;6187487;23;20028;-76
2022/09/08 06:49:45;;;;;;;25.30;20.48;;;21.00;76.00;;;;;;6186734;23;20042;-76
2022/09/08 06:52:26;;;;;;;25.90;20.20;;;21.10;76.10;;;;;;6186938;23;20068;-77
2022/09/08 06:55:02;;;;;;;26.83;19.63;;;21.00;76.00;;;;;;6187455;23;20048;-77
2022/09/08 06:58:13;;;;;;;26.38;20.58;;;21.10;76.10;;;;;;6186615;23;20055;-79
2022/09/08 07:01:34;;;;;;;24.45;18.23;;;21.10;76.10;;;;;;6188058;23;20021;-75
2022/09/08 07:04:19;;;;;;;21.70;17.25;;;21.10;76.10;;;;;;6134800;23;20029;-74
2022/09/08 07:07:00;;;;;;;25.58;16.70;;;21.10;76.10;;;;;;6189841;23;20028;-75
2022/09/08 07:09:37;;;;;;;26.33;16.35;;;21.20;76.20;;;;;;6188989;23;20476;-74
2022/09/08 07:12:28;;;;;;;22.63;16.48;;;21.20;76.10;;;;;;6188786;23;20436;-75
2022/09/08 07:15:09;;;;;;;18.27;14.40;;;21.30;76.10;;;;;;6189597;23;20036;-75
2022/09/08 07:17:50;;;;;;;27.58;13.70;;;21.30;75.90;;;;;;6189478;23;20017;-82
2022/09/08 07:20:16;;;;;;;19.63;12.00;;;21.30;75.80;;;;;;6162792;23;20017;-76
2022/09/08 07:22:50;;;;;;;16.65;11.85;;;21.40;75.80;;;;;;6189111;23;20436;-76
2022/09/08 07:25:32;;;;;;;20.23;11.20;;;21.30;75.60;;;;;;6189069;23;20063;-75
2022/09/08 07:28:06;;;;;;;19.10;10.07;;;21.40;75.50;;;;;;6188370;23;20021;-74
2022/09/08 07:30:34;;;;;;;12.85;7.47;;;21.40;75.40;;;;;;6188404;23;20534;-74
2022/09/08 07:33:17;;;;;;;7.72;5.32;;;21.30;75.20;;;;;;6188553;23;20024;-74
2022/09/08 07:36:04;;;;;;;11.38;4.90;;;21.40;75.00;;;;;;6188446;23;20480;-74
2022/09/08 07:38:41;;;;;;;7.90;4.65;;;21.40;74.70;;;;;;6188605;23;20307;-74
2022/09/08 07:41:10;;;;;;;5.70;3.25;;;21.30;74.60;;;;;;6189573;23;20017;-74
2022/09/08 07:43:35;;;;;;;6.05;3.15;;;21.40;74.40;;;;;;6189148;23;20370;-73
2022/09/08 07:46:19;;;;;;;9.50;3.08;;;21.30;74.20;;;;;;6188360;23;20028;-73
2022/09/08 07:49:06;;;;;;;6.68;2.80;;;21.30;73.60;;;;;;6189147;23;20017;-74
2022/09/08 07:55:21;;;;;;;5.40;2.40;;;21.20;73.80;;;;;;6157581;23;20022;-72
2022/09/08 07:57:52;;;;;;;5.47;2.60;;;21.20;74.00;;;;;;6158435;23;20422;-72
2022/09/08 08:00:32;;;;;;;6.20;2.33;;;21.20;74.00;;;;;;6159129;23;20024;-72
2022/09/08 08:03:13;;;;;;;4.43;2.28;;;21.20;73.70;;;;;;6159455;23;20013;-72
2022/09/08 08:05:47;;;;;;;7.55;2.15;;;21.20;73.60;;;;;;6158994;23;20087;-73
2022/09/08 08:08:37;;;;;;;5.45;2.05;;;21.20;73.60;;;;;;6158740;23;20036;-73
2022/09/08 08:11:14;;;;;;;3.03;1.90;;;21.20;73.60;;;;;;6158594;23;20093;-73
2022/09/08 08:13:58;;;;;;;3.25;1.60;;;21.20;73.50;;;;;;6158602;23;20029;-73
2022/09/08 08:16:50;;;;;;;3.97;1.60;;;21.20;73.40;;;;;;6158526;23;20033;-73
2022/09/08 08:19:40;;;;;;;4.80;1.70;;;21.20;73.30;;;;;;6158160;23;20053;-74
2022/09/08 08:22:38;;;;;;;5.60;1.95;;;21.20;73.20;;;;;;6158551;23;20017;-73
2022/09/08 08:25:29;;;;;;;4.85;1.45;;;21.20;73.20;;;;;;6158787;23;20029;-72
2022/09/08 08:28:30;;;;;;;4.38;1.42;;;21.20;73.70;;;;;;6157876;23;20433;-71
2022/09/08 08:31:08;;;;;;;4.10;1.40;;;21.20;73.10;;;;;;6101597;23;20028;-73
2022/09/08 08:33:40;;;;;;;4.47;1.20;;;21.20;73.10;;;;;;6158612;23;20029;-73
2022/09/08 08:36:12;;;;;;;4.32;1.25;;;21.20;73.00;;;;;;6158326;23;20077;-72
2022/09/08 08:39:14;;;;;;;8.10;1.40;;;21.20;72.90;;;;;;6158856;23;20280;-73
2022/09/08 08:41:53;;;;;;;5.85;1.10;;;21.20;72.70;;;;;;6158662;23;20417;-72
2022/09/08 08:44:31;;;;;;;1.83;0.90;;;21.20;72.80;;;;;;6158384;23;20017;-73
2022/09/08 08:47:24;;;;;;;2.83;0.80;;;21.20;72.70;;;;;;6159075;23;20028;-72
2022/09/08 08:50:16;;;;;;;4.60;0.90;;;21.30;72.60;;;;;;6158620;23;20354;-75
2022/09/08 08:52:44;;;;;;;4.72;0.75;;;21.30;72.40;;;;;;6158184;23;20326;-75
2022/09/08 08:55:21;;;;;;;3.42;0.90;;;21.20;72.10;;;;;;6188864;23;20291;-74
2022/09/08 08:58:09;;;;;;;3.58;0.60;;;21.20;72.10;;;;;;6188731;23;20018;-74
2022/09/08 09:01:04;;;;;;;1.67;0.60;;;21.10;72.30;;;;;;6188421;23;20013;-74
2022/09/08 09:03:48;;;;;;;2.40;0.60;;;21.00;72.30;;;;;;6188180;23;20118;-74
2022/09/08 09:06:51;;;;;;;2.10;0.50;;;20.90;73.10;;;;;;6187716;23;20023;-73
2022/09/08 09:09:31;;;;;;;10.40;1.40;;;20.90;72.60;;;;;;6187541;23;20017;-73
2022/09/08 09:12:27;;;;;;;9.38;1.20;;;20.90;72.80;;;;;;6162049;23;20013;-73
2022/09/08 09:15:18;;;;;;;17.70;1.15;;;20.90;72.90;;;;;;6187498;23;20155;-74
2022/09/08 09:18:24;;;;;;;8.38;0.95;;;20.90;73.00;;;;;;6187724;23;20017;-71
2022/09/08 09:21:10;;;;;;;7.53;1.23;;;20.80;73.10;;;;;;6187656;23;20028;-72
2022/09/08 09:24:02;;;;;;;9.63;0.73;;;20.80;73.30;;;;;;6188115;23;20083;-72
2022/09/08 09:26:35;;;;;;;6.95;0.88;;;20.90;73.50;;;;;;6168965;23;20021;-72
2022/09/08 09:29:18;;;;;;;10.48;0.98;;;20.90;73.50;;;;;;6187741;23;20016;-72
2022/09/08 09:32:00;;;;;;;8.35;1.25;;;20.90;73.40;;;;;;6187380;23;20032;-73
2022/09/08 09:34:31;;;;;;;8.32;0.95;;;21.00;73.50;;;;;;6187690;23;20020;-73
2022/09/08 09:37:18;;;;;;;9.02;1.10;;;21.00;73.50;;;;;;6187554;23;20009;-73
2022/09/08 09:39:44;;;;;;;10.88;1.15;;;21.00;73.40;;;;;;6185837;23;20017;-72
2022/09/08 09:42:28;;;;;;;9.07;1.10;;;21.00;73.40;;;;;;6188000;23;20024;-72
2022/09/08 09:45:09;;;;;;;20.52;1.85;;;21.00;73.40;;;;;;6187290;23;20017;-72
2022/09/08 09:47:54;;;;;;;13.85;1.95;;;21.10;73.50;;;;;;6188220;23;20017;-72
2022/09/08 09:50:31;;;;;;;20.20;2.00;;;21.10;73.40;;;;;;6187574;23;20167;-73
2022/09/08 09:53:26;;;;;;;20.85;2.00;;;21.10;73.40;;;;;;6187266;23;20025;-72
2022/09/08 09:56:56;;;;;;;18.85;2.03;;;21.10;73.50;;;;;;6187259;23;20024;-73
2022/09/08 09:59:42;;;;;;;13.20;1.85;;;21.10;73.50;;;;;;5989250;23;20021;-72
2022/09/08 10:02:50;;;;;;;9.23;1.85;;;21.10;73.60;;;;;;6187676;23;20021;-72
2022/09/08 10:05:30;;;;;;;15.52;1.88;;;21.20;73.60;;;;;;6187664;23;20021;-73
2022/09/08 10:08:40;;;;;;;14.48;1.48;;;21.20;73.60;;;;;;6187539;23;20028;-73
2022/09/08 10:11:47;;;;;;;14.25;1.88;;;21.20;73.50;;;;;;6187923;23;20017;-75
2022/09/08 10:14:46;;;;;;;8.13;2.08;;;21.20;73.40;;;;;;6187788;23;20017;-72
2022/09/08 10:17:39;;;;;;;8.85;1.15;;;21.20;73.50;;;;;;6187527;23;20023;-72
2022/09/08 10:20:26;;;;;;;4.80;1.50;;;21.20;73.50;;;;;;6186673;23;20309;-73
2022/09/08 10:22:58;;;;;;;7.93;1.40;;;21.20;73.50;;;;;;6187181;23;20418;-77
2022/09/08 10:26:00;;;;;;;7.28;1.52;;;21.20;73.60;;;;;;6187078;23;20025;-75
2022/09/08 10:28:46;;;;;;;9.98;1.67;;;21.20;73.60;;;;;;6137106;23;20027;-74
2022/09/08 10:31:44;;;;;;;9.98;1.55;;;21.20;73.60;;;;;;6112924;23;20108;-73
2022/09/08 10:34:19;;;;;;;6.60;1.15;;;21.20;73.50;;;;;;6189316;23;20456;-73
2022/09/08 10:37:06;;;;;;;4.55;1.50;;;21.20;73.30;;;;;;6189139;23;20025;-72
2022/09/08 10:40:09;;;;;;;2.88;1.40;;;21.10;73.10;;;;;;6189266;23;20021;-74
2022/09/08 10:42:51;;;;;;;3.58;1.30;;;21.00;73.20;;;;;;6189203;23;20445;-74
2022/09/08 10:45:32;;;;;;;5.40;1.55;;;20.90;73.50;;;;;;6163353;23;20021;-74
2022/09/08 10:48:28;;;;;;;5.22;1.30;;;20.90;73.80;;;;;;6189139;23;20021;-74
2022/09/08 10:51:00;;;;;;;3.67;1.27;;;20.90;73.90;;;;;;6189417;23;20028;-74
2022/09/08 11:15:18;;;;;;;6.82;1.00;;;21.00;73.80;;;;;;6171383;22;20392;-73
2022/09/08 11:17:47;;;;;;;4.50;0.77;;;21.00;73.50;;;;;;6188566;23;20104;-74
2022/09/08 11:20:36;;;;;;;5.20;1.00;;;21.00;73.60;;;;;;6187705;23;20017;-79
2022/09/08 11:23:20;;;;;;;5.18;0.63;;;20.90;73.90;;;;;;6162807;23;20017;-74
2022/09/08 11:26:09;;;;;;;3.22;0.90;;;20.90;74.10;;;;;;6188968;23;20017;-74
2022/09/08 11:28:53;;;;;;;4.30;0.90;;;20.90;74.20;;;;;;6162964;23;20095;-76
2022/09/08 11:31:54;;;;;;;3.42;0.70;;;21.00;74.30;;;;;;6163018;23;20017;-76
2022/09/08 11:34:40;;;;;;;7.30;1.00;;;21.00;74.20;;;;;;6132178;23;20114;-76
2022/09/08 11:37:31;;;;;;;3.03;0.47;;;21.10;74.10;;;;;;6186797;23;20025;-76
2022/09/08 11:40:17;;;;;;;3.42;0.70;;;21.10;73.90;;;;;;6161120;23;20021;-78
2022/09/08 11:42:46;;;;;;;6.13;1.27;;;21.10;73.90;;;;;;6188337;23;20342;-77
2022/09/08 11:45:32;;;;;;;8.23;0.80;;;21.10;73.90;;;;;;6162318;23;20021;-76
2022/09/08 11:48:30;;;;;;;3.80;0.47;;;21.10;73.80;;;;;;6128390;23;20032;-77
2022/09/08 11:51:15;;;;;;;7.38;0.80;;;21.20;73.80;;;;;;6172659;23;20048;-76
2022/09/08 11:53:52;;;;;;;3.55;0.70;;;21.20;73.70;;;;;;6188481;23;20087;-76
2022/09/08 11:56:24;;;;;;;2.00;0.57;;;21.20;73.70;;;;;;6188638;23;20017;-76
2022/09/08 11:59:06;;;;;;;4.13;0.70;;;21.20;73.70;;;;;;6162394;23;20028;-76
2022/09/08 12:02:00;;;;;;;1.73;0.88;;;21.20;73.60;;;;;;6188742;23;20017;-77
2022/09/08 12:04:47;;;;;;;;;;;21.20;73.60;;;;;;6188559;23;20017;-77
2022/09/08 12:08:00;;;;;;;2.88;0.60;;;21.20;73.60;;;;;;6188445;23;19920;-77
2022/09/08 12:10:42;;;;;;;5.43;0.90;;;21.20;73.60;;;;;;6082601;23;20022;-79
2022/09/08 12:13:38;;;;;;;5.75;1.00;;;21.20;73.50;;;;;;6188396;23;20040;-74
2022/09/08 12:16:29;;;;;;;4.93;1.33;;;21.30;73.50;;;;;;6198969;23;20063;-75
2022/09/08 12:19:28;;;;;;;3.75;1.35;;;21.20;73.60;;;;;;6218366;23;20021;-76
2022/09/08 12:21:57;;;;;;;4.38;1.35;;;21.20;73.80;;;;;;6218511;23;20020;-78
2022/09/08 12:24:40;;;;;;;4.05;1.30;;;21.20;73.90;;;;;;6218471;23;20079;-77
2022/09/08 12:27:25;;;;;;;5.10;1.20;;;21.20;74.00;;;;;;6217228;23;20488;-81
2022/09/08 12:30:35;;;;;;;5.43;1.55;;;21.20;74.00;;;;;;6191657;23;20095;-80
2022/09/08 12:33:08;;;;;;;7.32;1.10;;;21.20;74.00;;;;;;6217906;23;20020;-82
2022/09/08 14:00:30;;;;;;;14.95;5.63;;;21.50;76.20;;;;;;6167861;23;20098;-79
2022/09/08 14:03:01;;;;;;;11.38;4.82;;;21.50;76.10;;;;;;6190721;23;20121;-77
2022/09/08 14:05:45;;;;;;;5.38;3.40;;;21.50;75.90;;;;;;6218153;23;20368;-79
2022/09/08 14:08:11;;;;;;;7.95;3.20;;;21.50;75.50;;;;;;6219613;23;20052;-78
2022/09/08 14:10:39;;;;;;;8.55;2.83;;;21.50;75.10;;;;;;6220076;23;20016;-79
2022/09/08 14:13:14;;;;;;;6.03;2.33;;;21.50;74.90;;;;;;6219400;23;20021;-80
2022/09/08 14:15:53;;;;;;;8.52;1.88;;;21.50;74.70;;;;;;6167915;23;20017;-79
2022/09/08 14:18:49;;;;;;;5.97;2.15;;;21.50;74.50;;;;;;6218827;23;20057;-78
2022/09/08 14:21:34;;;;;;;6.57;1.83;;;21.50;74.40;;;;;;6219520;23;20357;-79
2022/09/08 14:24:03;;;;;;;3.60;1.63;;;21.50;74.50;;;;;;6219589;23;20027;-81
2022/09/08 14:26:45;;;;;;;3.45;1.73;;;21.50;74.50;;;;;;6219439;23;20413;-79
2022/09/08 14:29:10;;;;;;;6.15;1.77;;;21.60;74.50;;;;;;6168546;23;20017;-80
2022/09/08 14:31:56;;;;;;;2.67;1.35;;;21.60;74.60;;;;;;6193053;23;20024;-79
2022/09/08 14:34:21;;;;;;;5.43;1.25;;;21.60;74.50;;;;;;6193113;23;20020;-79
2022/09/08 14:37:10;;;;;;;4.85;1.48;;;21.60;74.50;;;;;;6193205;23;20017;-79
2022/09/08 14:39:42;;;;;;;3.40;1.45;;;21.60;74.40;;;;;;6220037;23;20020;-78
2022/09/08 14:42:27;;;;;;;4.53;1.63;;;21.60;74.50;;;;;;6220486;23;20100;-80
2022/09/08 14:45:30;;;;;;;2.97;1.42;;;21.60;74.40;;;;;;6193219;23;20092;-79
2022/09/08 14:48:20;;;;;;;3.30;1.47;;;21.70;74.40;;;;;;6193713;23;20048;-84
2022/09/08 14:51:10;;;;;;;5.30;1.50;;;21.70;74.30;;;;;;6192736;23;20074;-79
2022/09/08 14:54:02;;;;;;;6.60;1.83;;;21.70;74.40;;;;;;6219125;23;20013;-76
2022/09/08 14:56:36;;;;;;;8.25;1.52;;;21.70;74.60;;;;;;6192857;23;20012;-76
2022/09/08 14:59:17;;;;;;;9.35;1.83;;;21.70;74.90;;;;;;6192896;23;20104;-78
2022/09/08 15:01:50;;;;;;;10.07;1.98;;;21.60;75.00;;;;;;6219352;23;20346;-79
2022/09/08 15:04:26;;;;;;;17.60;2.67;;;21.60;75.20;;;;;;6192768;23;20083;-79
2022/09/08 15:07:00;;;;;;;12.80;2.67;;;21.60;75.30;;;;;;6192621;23;20013;-77
2022/09/08 15:09:54;;;;;;;10.60;2.00;;;21.60;75.30;;;;;;6219162;23;20008;-81
2022/09/08 15:12:25;;;;;;;18.77;2.28;;;21.60;75.10;;;;;;6192334;23;20302;-81
2022/09/08 15:15:03;;;;;;;10.93;2.00;;;21.60;75.10;;;;;;6192976;23;20009;-81
2022/09/08 15:17:38;;;;;;;9.50;1.70;;;21.70;75.10;;;;;;6167349;23;20413;-81
2022/09/08 15:20:11;;;;;;;16.42;2.30;;;21.60;75.10;;;;;;6192608;23;20035;-82
2022/09/08 15:22:49;;;;;;;;;;;21.70;75.00;;;;;;6168227;23;20027;-81
2022/09/08 15:25:30;;;;;;;12.82;1.92;;;21.70;74.90;;;;;;6167690;23;19912;-81
2022/09/08 15:27:57;;;;;;;13.10;2.20;;;21.70;74.90;;;;;;6167787;23;20020;-81
2022/09/08 15:30:28;;;;;;;8.57;1.70;;;21.70;74.90;;;;;;6192505;23;20066;-83
2022/09/08 15:33:14;;;;;;;7.35;1.70;;;21.70;74.90;;;;;;6193024;23;20027;-81
2022/09/08 15:36:18;;;;;;;9.73;2.00;;;21.70;74.70;;;;;;6192289;23;20096;-84
2022/09/08 15:38:58;;;;;;;9.73;2.22;;;21.70;74.70;;;;;;6087891;23;20019;-83
2022/09/08 15:41:38;;;;;;;9.85;2.22;;;21.70;74.70;;;;;;6192653;23;20012;-81
2022/09/08 15:44:23;;;;;;;8.55;1.73;;;21.70;75.30;;;;;;6168555;23;20040;-82
2022/09/08 15:47:37;;;;;;;6.43;1.60;;;21.70;74.70;;;;;;6192716;23;20016;-81
2022/09/08 15:50:27;;;;;;;5.80;1.48;;;21.70;74.70;;;;;;6191334;23;20013;-82
2022/09/08 15:53:05;;;;;;;4.72;1.75;;;21.70;74.70;;;;;;6192106;23;20017;-81
2022/09/08 15:56:03;;;;;;;5.60;1.52;;;21.70;74.70;;;;;;6167974;23;20414;-80
2022/09/08 15:58:37;;;;;;;6.32;1.55;;;21.60;74.60;;;;;;6192323;23;20018;-81
2022/09/08 16:01:27;;;;;;;3.45;1.33;;;21.70;74.70;;;;;;6166737;23;20020;-80
2022/09/08 16:04:03;;;;;;;5.13;1.38;;;21.70;74.70;;;;;;6167079;23;20534;-79
2022/09/08 16:06:53;;;;;;;5.53;1.20;;;21.70;74.70;;;;;;6167713;23;20020;-82
2022/09/08 16:09:19;;;;;;;3.47;1.50;;;21.70;74.60;;;;;;6218272;23;20444;-81
2022/09/08 16:11:58;;;;;;;3.30;1.17;;;21.70;74.70;;;;;;6218405;23;20031;-82
2022/09/08 16:14:57;;;;;;;4.65;1.30;;;21.60;74.50;;;;;;6167275;23;20008;-80
2022/09/08 16:17:23;;;;;;;3.88;1.15;;;21.70;74.60;;;;;;6167324;23;20054;-82
2022/09/08 16:20:18;;;;;;;3.70;1.30;;;21.60;74.50;;;;;;6166868;23;20048;-81
2022/09/08 16:22:54;;;;;;;5.10;1.20;;;21.60;74.50;;;;;;6167146;23;20036;-81
2022/09/08 16:25:53;;;;;;;5.13;1.13;;;21.60;74.50;;;;;;6167198;23;20032;-82
2022/09/08 16:28:59;;;;;;;4.45;1.20;;;21.70;74.50;;;;;;6164843;23;20020;-83
2022/09/08 16:31:52;;;;;;;8.38;2.28;;;21.70;74.50;;;;;;6217706;23;20409;-76
2022/09/08 16:34:26;;;;;;;7.88;2.10;;;21.70;74.90;;;;;;6218390;23;20039;-77
2022/09/08 16:36:58;;;;;;;8.18;2.42;;;21.60;74.30;;;;;;6191741;23;20052;-78
2022/09/08 16:39:25;;;;;;;10.40;1.95;;;21.60;74.30;;;;;;6192273;23;20032;-78
2022/09/08 16:42:20;;;;;;;7.13;1.77;;;21.60;74.40;;;;;;6218088;23;20021;-78
2022/09/08 16:44:52;;;;;;;4.43;1.20;;;21.60;74.40;;;;;;6218529;23;20016;-79
2022/09/08 16:47:48;;;;;;;8.15;1.75;;;21.60;74.40;;;;;;6192210;23;20089;-77
2022/09/08 16:50:29;;;;;;;3.10;1.10;;;21.60;74.40;;;;;;6217924;23;20052;-77
2022/09/08 16:53:11;;;;;;;7.72;1.48;;;21.60;74.40;;;;;;6218565;23;20027;-80
2022/09/08 16:56:04;;;;;;;4.47;1.17;;;21.60;74.50;;;;;;6217984;23;20348;-79
2022/09/08 16:58:37;;;;;;;5.68;1.58;;;21.60;74.50;;;;;;6218790;23;20035;-78
2022/09/08 17:01:13;;;;;;;3.75;1.38;;;21.60;74.50;;;;;;6218077;23;20067;-77
2022/09/08 17:03:50;;;;;;;2.67;1.30;;;21.70;74.60;;;;;;6218034;23;20374;-78
2022/09/08 17:06:30;;;;;;;3.22;1.23;;;21.70;74.50;;;;;;6192175;23;20366;-77
2022/09/08 17:09:12;;;;;;;5.55;1.35;;;21.70;74.40;;;;;;6217962;23;20017;-73
2022/09/08 17:11:53;;;;;;;4.78;1.48;;;21.60;74.20;;;;;;6217434;23;20062;-76
2022/09/08 17:14:20;;;;;;;5.20;1.25;;;21.60;74.40;;;;;;6218066;23;20170;-76
2022/09/08 17:17:29;;;;;;;4.75;1.30;;;21.60;74.40;;;;;;6218008;23;20028;-72
2022/09/08 17:19:57;;;;;;;9.68;2.20;;;21.60;74.30;;;;;;6217231;23;20055;-74
2022/09/08 17:22:59;;;;;;;10.23;2.22;;;21.60;74.50;;;;;;6217893;23;20028;-77
2022/09/08 17:26:06;;;;;;;7.05;1.70;;;21.60;74.60;;;;;;6217456;23;20433;-77
2022/09/08 17:28:50;;;;;;;6.30;2.08;;;21.60;74.80;;;;;;6217851;23;20025;-76
2022/09/08 17:31:32;;;;;;;;;;;21.60;74.90;;;;;;6218704;23;20111;-75
2022/09/08 17:34:17;;;;;;;6.47;1.92;;;21.60;74.80;;;;;;6191617;23;20356;-74
2022/09/08 17:36:58;;;;;;;4.55;2.05;;;21.60;75.00;;;;;;6192319;23;20083;-75
2022/09/08 17:39:48;;;;;;;7.93;2.38;;;21.60;75.00;;;;;;6218043;23;20017;-76
2022/09/08 17:42:35;;;;;;;7.95;2.13;;;21.50;74.90;;;;;;6217302;23;20021;-74
2022/09/08 17:45:02;;;;;;;5.28;2.30;;;21.50;74.80;;;;;;6218263;23;20027;-74
2022/09/08 17:47:34;;;;;;;5.60;2.35;;;21.40;75.00;;;;;;6217108;23;20075;-75
2022/09/08 19:19:37;;;;;;;8.25;4.53;;;21.40;74.60;;;;;;6179175;23;20115;-80
2022/09/08 19:22:23;;;;;;;6.72;5.28;;;21.40;73.70;;;;;;6192520;23;20100;-83
2022/09/08 19:24:57;;;;;;;6.55;5.68;;;21.30;73.00;;;;;;6192959;23;20016;-81
2022/09/08 19:27:26;;;;;;;9.25;5.47;;;21.10;73.10;;;;;;6192525;23;20087;-82
2022/09/08 19:29:58;;;;;;;6.90;5.68;;;20.90;73.20;;;;;;6192485;23;20079;-81
2022/09/08 19:32:24;;;;;;;6.38;5.22;;;20.80;73.40;;;;;;6218214;23;20067;-81
2022/09/08 19:34:59;;;;;;;5.85;5.35;;;20.70;73.80;;;;;;6192486;23;20095;-82
2022/09/08 19:37:52;;;;;;;6.82;5.47;;;20.60;73.90;;;;;;6192798;23;20017;-81
2022/09/08 19:40:43;;;;;;;7.38;5.78;;;20.50;73.70;;;;;;6167956;23;20087;-81
2022/09/08 19:43:20;;;;;;;7.65;5.65;;;20.40;73.60;;;;;;6218882;23;20009;-81
2022/09/08 19:46:01;;;;;;;7.10;5.28;;;20.40;73.70;;;;;;6218911;23;20028;-79
2022/09/08 19:48:35;;;;;;;5.45;4.85;;;20.30;74.20;;;;;;6167507;23;20019;-82
2022/09/08 19:51:07;;;;;;;7.82;5.18;;;20.30;74.50;;;;;;6218302;23;20017;-78
2022/09/08 19:53:45;;;;;;;6.60;5.70;;;20.30;74.50;;;;;;6218860;23;20048;-75
2022/09/08 19:56:26;;;;;;;8.48;5.00;;;20.30;74.50;;;;;;6192257;23;20017;-79
2022/09/08 19:59:04;;;;;;;6.65;5.15;;;20.30;74.80;;;;;;6219056;23;20119;-79
2022/09/08 20:01:38;;;;;;;7.43;5.80;;;20.40;74.70;;;;;;6218481;23;20021;-79
2022/09/08 20:04:33;;;;;;;6.55;5.53;;;20.40;74.70;;;;;;6193160;23;20022;-81
2022/09/08 20:07:07;;;;;;;5.85;5.25;;;20.40;74.80;;;;;;6161427;23;20025;-77
2022/09/08 20:09:43;;;;;;;6.32;5.72;;;20.40;74.80;;;;;;6192385;23;20067;-79
2022/09/08 20:12:26;;;;;;;6.43;5.57;;;20.40;74.90;;;;;;6167498;23;20087;-77
2022/09/08 20:14:54;;;;;;;7.30;6.00;;;20.40;75.00;;;;;;6218714;23;20004;-78
2022/09/08 20:17:37;;;;;;;7.97;6.50;;;20.40;75.10;;;;;;6218718;23;20402;-79
2022/09/08 20:20:17;;;;;;;7.10;6.38;;;20.40;75.10;;;;;;6167432;23;20023;-79
2022/09/08 20:22:57;;;;;;;7.22;6.45;;;20.40;75.10;;;;;;6192685;23;20059;-77
2022/09/08 20:26:06;;;;;;;8.93;6.72;;;20.40;75.30;;;;;;6192540;23;20027;-80
2022/09/08 20:28:44;;;;;;;6.95;6.28;;;20.40;75.30;;;;;;6211064;23;20017;-77
2022/09/08 20:31:25;;;;;;;10.88;7.80;;;20.40;75.30;;;;;;6218273;23;20016;-77
2022/09/08 20:34:09;;;;;;;9.38;6.93;;;20.40;75.30;;;;;;6218557;23;20008;-77
2022/09/08 20:36:48;;;;;;;7.22;6.53;;;20.40;75.30;;;;;;6218481;23;20009;-78
2022/09/08 20:39:33;;;;;;;10.43;7.00;;;20.40;75.30;;;;;;6218036;23;20071;-76
2022/09/08 20:42:20;;;;;;;7.75;7.00;;;20.40;75.40;;;;;;6219036;23;20020;-77
2022/09/08 20:45:23;;;;;;;9.45;6.90;;;20.40;75.40;;;;;;6157922;23;20290;-83
2022/09/08 20:47:55;;;;;;;8.07;6.30;;;20.40;75.40;;;;;;6166848;23;20009;-82
2022/09/08 20:50:50;;;;;;;8.82;6.45;;;20.40;75.50;;;;;;6192384;23;20027;-87
